Time;durP1;ratioP1;P1;durP2;ratioP2;P2;SDS_P1;SDS_P2;PMS_P1;PMS_P2;Temp;Humidity;BMP_temperature;BMP_pressure;BME280_temperature;BME280_humidity;BME280_pressure;Samples;Min_cycle;Max_cycle;Signal;HPM_P1;HPM_P2
2024/03/08 00:02:03;;;;;;;24.52;15.30;;;;;;;;;;5055175;28;20021;-56
2024/03/08 00:04:29;;;;;;;20.50;16.10;;;;;;;;;;5054044;28;20024;-57
2024/03/08 00:06:55;;;;;;;21.17;14.27;;;;;;;;;;5054349;28;20471;-57
2024/03/08 00:09:22;;;;;;;22.67;16.83;;;;;;;;;;5054882;28;20029;-57
2024/03/08 00:11:50;;;;;;;20.33;14.70;;;;;;;;;;5054277;28;20029;-57
2024/03/08 00:14:16;;;;;;;20.52;14.75;;;;;;;;;;5054770;28;20039;-57
2024/03/08 00:16:43;;;;;;;19.27;14.23;;;;;;;;;;5054228;28;20099;-56
2024/03/08 00:19:09;;;;;;;18.15;13.45;;;;;;;;;;5054682;28;20072;-54
2024/03/08 00:21:35;;;;;;;20.92;14.23;;;;;;;;;;5054408;28;20087;-57
2024/03/08 00:24:01;;;;;;;20.70;15.63;;;;;;;;;;5053799;28;20463;-58
2024/03/08 00:26:28;;;;;;;22.60;14.30;;;;;;;;;;5053624;28;20036;-58
2024/03/08 00:28:54;;;;;;;19.50;14.82;;;;;;;;;;5053714;28;20029;-57
2024/03/08 00:31:20;;;;;;;19.15;14.98;;;;;;;;;;5053410;28;20028;-57
2024/03/08 00:33:46;;;;;;;20.05;14.00;;;;;;;;;;5054481;28;20162;-56
2024/03/08 00:36:12;;;;;;;21.02;14.73;;;;;;;;;;5054607;28;20028;-58
2024/03/08 00:38:38;;;;;;;23.67;14.73;;;;;;;;;;5053161;28;20375;-57
2024/03/08 00:41:04;;;;;;;19.58;14.57;;;;;;;;;;5054327;28;20078;-57
2024/03/08 00:43:30;;;;;;;17.92;14.35;;;;;;;;;;5053833;28;20402;-57
2024/03/08 00:45:57;;;;;;;22.45;15.32;;;;;;;;;;5054062;28;20090;-55
2024/03/08 00:48:23;;;;;;;20.65;14.27;;;;;;;;;;5054455;28;20043;-58
2024/03/08 00:50:49;;;;;;;21.75;15.38;;;;;;;;;;5053414;28;20029;-56
2024/03/08 00:53:15;;;;;;;19.10;14.30;;;;;;;;;;5053946;28;20087;-58
2024/03/08 00:55:41;;;;;;;21.90;16.38;;;;;;;;;;5053086;28;20021;-57
2024/03/08 00:58:09;;;;;;;19.77;14.77;;;;;;;;;;5053275;28;20021;-57
2024/03/08 01:00:35;;;;;;;19.67;15.52;;;;;;;;;;5053566;28;20037;-57
2024/03/08 01:03:01;;;;;;;17.55;14.00;;;;;;;;;;5053799;28;20117;-58
2024/03/08 01:05:27;;;;;;;24.13;17.45;;;;;;;;;;5053539;28;20036;-56
2024/03/08 01:07:52;;;;;;;18.67;15.32;;;;;;;;;;5053565;28;20069;-57
2024/03/08 01:10:18;;;;;;;22.27;16.23;;;;;;;;;;5053460;28;20018;-55
2024/03/08 01:12:45;;;;;;;19.63;15.05;;;;;;;;;;5053098;28;20108;-58
2024/03/08 01:15:11;;;;;;;21.63;15.70;;;;;;;;;;5053417;28;20040;-57
2024/03/08 01:17:37;;;;;;;21.90;17.42;;;;;;;;;;5053405;28;20025;-57
2024/03/08 01:20:03;;;;;;;20.42;15.65;;;;;;;;;;5054215;28;20029;-57
2024/03/08 01:22:29;;;;;;;25.23;15.30;;;;;;;;;;5053883;28;20025;-57
2024/03/08 01:24:56;;;;;;;20.75;15.02;;;;;;;;;;5053883;28;20074;-57
2024/03/08 01:27:21;;;;;;;22.17;13.43;;;;;;;;;;5053391;28;20037;-56
2024/03/08 01:29:47;;;;;;;21.98;15.80;;;;;;;;;;5053681;28;20052;-56
2024/03/08 01:32:14;;;;;;;19.73;14.20;;;;;;;;;;5053282;28;20036;-57
2024/03/08 01:34:40;;;;;;;22.73;15.60;;;;;;;;;;5053242;28;20035;-56
2024/03/08 01:37:06;;;;;;;22.33;15.52;;;;;;;;;;5053725;28;20112;-56
2024/03/08 01:39:32;;;;;;;20.52;15.77;;;;;;;;;;5052259;28;20051;-57
2024/03/08 01:41:58;;;;;;;18.85;15.02;;;;;;;;;;5054374;28;20474;-57
2024/03/08 01:44:24;;;;;;;18.90;15.02;;;;;;;;;;5056697;28;20471;-57
2024/03/08 01:46:52;;;;;;;18.63;14.38;;;;;;;;;;5057367;28;20098;-57
2024/03/08 01:49:20;;;;;;;22.83;15.93;;;;;;;;;;5057770;28;20409;-56
2024/03/08 01:51:46;;;;;;;18.08;14.68;;;;;;;;;;5057374;28;20033;-55
2024/03/08 01:54:13;;;;;;;18.92;15.63;;;;;;;;;;5056552;28;20541;-57
2024/03/08 01:56:39;;;;;;;22.45;15.25;;;;;;;;;;5056922;28;20502;-57
2024/03/08 01:59:07;;;;;;;21.88;14.68;;;;;;;;;;5057276;28;20021;-57
2024/03/08 02:01:33;;;;;;;18.83;12.77;;;;;;;;;;5056712;28;20033;-57
2024/03/08 02:03:59;;;;;;;21.27;13.23;;;;;;;;;;5057202;28;20028;-56
2024/03/08 02:06:25;;;;;;;20.23;14.70;;;;;;;;;;5056568;28;20051;-57
2024/03/08 02:08:51;;;;;;;21.92;14.02;;;;;;;;;;5056896;28;20112;-57
2024/03/08 02:11:18;;;;;;;22.50;14.00;;;;;;;;;;5056611;28;20040;-54
2024/03/08 02:13:44;;;;;;;19.30;15.15;;;;;;;;;;5056553;28;20079;-55
2024/03/08 02:16:10;;;;;;;19.20;13.35;;;;;;;;;;5056713;28;20134;-56
2024/03/08 02:18:39;;;;;;;18.50;13.15;;;;;;;;;;5056403;28;20029;-57
2024/03/08 02:21:08;;;;;;;21.05;14.07;;;;;;;;;;5056889;28;20367;-57
2024/03/08 02:23:34;;;;;;;16.47;13.57;;;;;;;;;;5056831;28;20375;-53
2024/03/08 02:26:00;;;;;;;19.73;15.13;;;;;;;;;;5056240;28;20025;-55
2024/03/08 02:28:26;;;;;;;17.87;14.70;;;;;;;;;;5056276;28;20036;-57
2024/03/08 02:30:55;;;;;;;17.60;14.07;;;;;;;;;;5056285;28;20035;-57
2024/03/08 02:33:21;;;;;;;23.73;14.63;;;;;;;;;;5056099;28;20033;-56
2024/03/08 02:35:48;;;;;;;22.05;15.20;;;;;;;;;;5056444;28;20033;-55
2024/03/08 02:38:18;;;;;;;15.83;13.53;;;;;;;;;;5056257;28;20033;-56
2024/03/08 02:40:44;;;;;;;20.58;12.68;;;;;;;;;;5056597;28;20029;-58
2024/03/08 02:43:10;;;;;;;20.47;14.73;;;;;;;;;;5056417;28;20029;-56
2024/03/08 02:45:36;;;;;;;17.67;12.93;;;;;;;;;;5055925;28;20090;-57
2024/03/08 02:48:02;;;;;;;18.43;13.47;;;;;;;;;;5056130;28;20029;-56
2024/03/08 02:50:28;;;;;;;17.40;13.80;;;;;;;;;;5056061;28;20103;-57
2024/03/08 02:52:54;;;;;;;17.53;13.53;;;;;;;;;;5055383;28;20112;-56
2024/03/08 02:55:20;;;;;;;18.10;14.57;;;;;;;;;;5056213;28;20029;-56
2024/03/08 02:57:49;;;;;;;23.73;14.07;;;;;;;;;;5056811;28;20055;-54
2024/03/08 03:00:15;;;;;;;17.87;15.03;;;;;;;;;;5055666;28;20040;-57
2024/03/08 03:02:42;;;;;;;19.80;14.63;;;;;;;;;;5055603;28;20078;-56
2024/03/08 03:05:09;;;;;;;18.57;14.43;;;;;;;;;;5055575;28;20025;-55
2024/03/08 03:07:35;;;;;;;22.40;15.37;;;;;;;;;;5055664;28;20152;-57
2024/03/08 03:10:02;;;;;;;20.63;14.07;;;;;;;;;;5056026;28;20021;-57
2024/03/08 03:12:33;;;;;;;22.90;14.17;;;;;;;;;;5055085;28;20025;-55
2024/03/08 03:14:59;;;;;;;17.20;12.20;;;;;;;;;;5055719;28;20033;-57
2024/03/08 03:17:25;;;;;;;16.90;13.17;;;;;;;;;;5055241;28;20068;-55
2024/03/08 03:19:52;;;;;;;18.50;13.40;;;;;;;;;;5055561;28;20064;-57
2024/03/08 03:22:18;;;;;;;19.00;13.75;;;;;;;;;;5055210;28;20029;-56
2024/03/08 03:24:46;;;;;;;21.40;15.27;;;;;;;;;;5055684;28;20116;-54
2024/03/08 03:27:12;;;;;;;17.67;14.80;;;;;;;;;;5055849;28;20439;-55
2024/03/08 03:29:45;;;;;;;19.60;13.80;;;;;;;;;;5055525;28;20074;-57
2024/03/08 03:32:11;;;;;;;25.07;16.03;;;;;;;;;;5055034;28;20040;-54
2024/03/08 03:34:37;;;;;;;17.17;14.33;;;;;;;;;;5055525;28;20371;-57
2024/03/08 03:37:08;;;;;;;18.20;15.10;;;;;;;;;;5054975;28;20036;-56
2024/03/08 03:39:34;;;;;;;;;;;;;;;;;;5055630;28;20056;-56
2024/03/08 03:42:03;;;;;;;20.47;15.87;;;;;;;;;;5054891;28;19916;-57
2024/03/08 03:44:29;;;;;;;19.60;15.63;;;;;;;;;;5054432;28;20470;-57
2024/03/08 03:46:55;;;;;;;16.17;14.37;;;;;;;;;;5054641;28;20433;-56
2024/03/08 03:49:21;;;;;;;21.30;17.40;;;;;;;;;;5055641;28;20024;-57
2024/03/08 03:51:47;;;;;;;21.10;16.03;;;;;;;;;;5054610;28;20029;-56
2024/03/08 03:54:13;;;;;;;21.50;15.67;;;;;;;;;;5054575;28;20112;-57
2024/03/08 03:56:39;;;;;;;24.33;16.43;;;;;;;;;;5054961;28;20536;-57
2024/03/08 03:59:06;;;;;;;20.13;16.23;;;;;;;;;;5055326;28;20083;-54
2024/03/08 04:01:32;;;;;;;21.80;16.83;;;;;;;;;;5054396;28;20025;-57
2024/03/08 04:03:58;;;;;;;25.70;17.33;;;;;;;;;;5053802;28;20078;-57
2024/03/08 04:06:24;;;;;;;19.90;16.00;;;;;;;;;;5054215;28;20021;-55
2024/03/08 04:08:50;;;;;;;19.83;16.87;;;;;;;;;;5054469;28;20051;-57
2024/03/08 04:11:16;;;;;;;20.83;15.00;;;;;;;;;;5054272;28;20544;-57
2024/03/08 04:13:43;;;;;;;20.40;16.53;;;;;;;;;;5054811;28;20040;-57
2024/03/08 04:16:11;;;;;;;21.30;16.17;;;;;;;;;;5054225;28;20056;-57
2024/03/08 04:18:37;;;;;;;21.07;15.73;;;;;;;;;;5054778;28;20037;-57
2024/03/08 04:21:06;;;;;;;21.93;16.23;;;;;;;;;;5054043;28;20029;-57
2024/03/08 04:23:32;;;;;;;19.53;17.03;;;;;;;;;;5054060;28;20064;-56
2024/03/08 04:25:58;;;;;;;24.20;18.13;;;;;;;;;;5053998;28;20024;-57
2024/03/08 04:28:25;;;;;;;18.87;16.83;;;;;;;;;;5054180;28;20487;-57
2024/03/08 04:30:51;;;;;;;21.37;17.67;;;;;;;;;;5053985;28;20355;-55
2024/03/08 04:33:17;;;;;;;21.10;16.43;;;;;;;;;;5054248;28;20130;-57
2024/03/08 04:35:45;;;;;;;21.60;17.23;;;;;;;;;;5053862;28;20060;-57
2024/03/08 04:38:11;;;;;;;18.87;15.03;;;;;;;;;;5054502;28;20035;-55
2024/03/08 04:40:37;;;;;;;30.27;17.58;;;;;;;;;;5054131;28;20071;-56
2024/03/08 04:43:03;;;;;;;24.20;17.13;;;;;;;;;;5054616;28;20029;-57
2024/03/08 04:45:29;;;;;;;23.37;17.63;;;;;;;;;;5054054;28;20458;-56
2024/03/08 04:47:55;;;;;;;21.93;16.13;;;;;;;;;;5053987;28;20086;-57
2024/03/08 04:50:21;;;;;;;25.03;17.83;;;;;;;;;;5053703;28;20033;-57
2024/03/08 04:52:47;;;;;;;21.38;15.88;;;;;;;;;;5053894;28;20028;-57
2024/03/08 04:55:13;;;;;;;23.40;18.27;;;;;;;;;;5053627;28;20033;-57
2024/03/08 04:57:39;;;;;;;22.37;17.73;;;;;;;;;;5053264;28;20056;-57
2024/03/08 05:00:11;;;;;;;21.87;17.60;;;;;;;;;;5053575;28;20078;-57
2024/03/08 05:02:38;;;;;;;20.43;16.87;;;;;;;;;;5054210;28;20367;-58
2024/03/08 05:05:06;;;;;;;21.63;15.53;;;;;;;;;;5053587;28;20025;-56
2024/03/08 05:07:32;;;;;;;24.40;18.07;;;;;;;;;;5053908;28;20120;-56
2024/03/08 05:09:58;;;;;;;21.20;18.03;;;;;;;;;;5054489;28;20052;-56
2024/03/08 05:12:24;;;;;;;24.20;17.03;;;;;;;;;;5053458;28;20025;-57
2024/03/08 05:14:50;;;;;;;21.03;17.27;;;;;;;;;;5054084;28;20400;-57
2024/03/08 05:17:17;;;;;;;23.57;15.57;;;;;;;;;;5057248;28;20060;-57
2024/03/08 05:19:43;;;;;;;22.57;17.43;;;;;;;;;;5058199;28;20057;-58
2024/03/08 05:22:09;;;;;;;24.70;18.17;;;;;;;;;;5057477;28;20033;-55
2024/03/08 05:24:35;;;;;;;23.07;19.03;;;;;;;;;;5057368;28;20525;-57
2024/03/08 05:27:02;;;;;;;20.27;17.20;;;;;;;;;;5057692;28;20037;-56
2024/03/08 05:29:28;;;;;;;21.97;17.43;;;;;;;;;;5057527;28;20371;-55
2024/03/08 05:31:55;;;;;;;22.27;18.50;;;;;;;;;;5057877;28;20025;-57
2024/03/08 05:34:21;;;;;;;24.87;18.30;;;;;;;;;;5057186;28;20135;-55
2024/03/08 05:36:49;;;;;;;24.83;16.90;;;;;;;;;;5058001;28;20107;-51
2024/03/08 05:39:15;;;;;;;24.37;18.03;;;;;;;;;;5058072;28;20036;-57
2024/03/08 05:41:42;;;;;;;33.40;20.27;;;;;;;;;;5057117;28;20029;-57
2024/03/08 05:44:08;;;;;;;24.47;17.67;;;;;;;;;;5057493;28;20032;-57
2024/03/08 05:46:35;;;;;;;23.30;19.20;;;;;;;;;;5056970;28;20040;-57
2024/03/08 05:49:05;;;;;;;26.97;19.53;;;;;;;;;;5057641;28;20111;-53
2024/03/08 05:51:31;;;;;;;29.37;19.87;;;;;;;;;;5057388;28;20052;-55
2024/03/08 05:53:57;;;;;;;22.87;17.60;;;;;;;;;;5056759;28;20025;-55
2024/03/08 05:56:23;;;;;;;28.03;19.87;;;;;;;;;;5057075;28;20049;-56
2024/03/08 05:58:50;;;;;;;21.10;17.23;;;;;;;;;;5056755;28;20045;-53
2024/03/08 06:01:15;;;;;;;24.57;20.23;;;;;;;;;;5056723;28;20083;-57
2024/03/08 06:03:45;;;;;;;25.27;18.67;;;;;;;;;;5056644;28;20029;-53
2024/03/08 06:06:15;;;;;;;21.57;18.50;;;;;;;;;;5056618;28;20037;-57
2024/03/08 06:08:43;;;;;;;24.85;18.00;;;;;;;;;;5056776;28;20033;-56
2024/03/08 06:11:09;;;;;;;27.37;18.13;;;;;;;;;;5057078;28;20115;-56
2024/03/08 06:13:35;;;;;;;23.90;18.77;;;;;;;;;;5056480;28;20017;-54
2024/03/08 06:16:04;;;;;;;21.27;17.43;;;;;;;;;;5056716;28;20063;-55
2024/03/08 06:18:30;;;;;;;22.17;19.53;;;;;;;;;;5056623;28;20029;-55
2024/03/08 06:20:56;;;;;;;25.20;19.13;;;;;;;;;;5056337;28;20064;-55
2024/03/08 06:23:22;;;;;;;22.60;18.63;;;;;;;;;;5056371;28;20068;-55
2024/03/08 06:25:48;;;;;;;24.90;18.40;;;;;;;;;;5056169;28;20013;-56
2024/03/08 06:28:14;;;;;;;28.10;18.00;;;;;;;;;;5054699;28;20028;-53
2024/03/08 06:30:40;;;;;;;26.57;18.07;;;;;;;;;;5055708;28;20374;-54
2024/03/08 06:33:07;;;;;;;23.60;19.67;;;;;;;;;;5055766;28;20083;-53
2024/03/08 06:35:33;;;;;;;21.63;18.33;;;;;;;;;;5055654;28;20029;-56
2024/03/08 06:37:59;;;;;;;28.13;20.10;;;;;;;;;;5055818;28;20044;-53
2024/03/08 06:40:25;;;;;;;26.40;19.33;;;;;;;;;;5055677;28;20087;-57
2024/03/08 06:42:51;;;;;;;26.90;19.57;;;;;;;;;;5056390;28;20029;-52
2024/03/08 06:45:20;;;;;;;24.37;17.10;;;;;;;;;;5055773;28;20029;-57
2024/03/08 06:47:46;;;;;;;21.67;18.20;;;;;;;;;;5055319;28;20464;-57
2024/03/08 06:50:13;;;;;;;24.50;17.77;;;;;;;;;;5055208;28;20482;-56
2024/03/08 06:52:40;;;;;;;24.38;17.67;;;;;;;;;;5055099;28;20071;-56
2024/03/08 06:55:06;;;;;;;23.33;17.35;;;;;;;;;;5055426;28;20154;-55
2024/03/08 06:57:32;;;;;;;27.90;18.07;;;;;;;;;;5055481;28;20558;-54
2024/03/08 06:59:58;;;;;;;27.23;19.03;;;;;;;;;;5055378;28;20053;-56
2024/03/08 07:02:24;;;;;;;26.65;17.63;;;;;;;;;;5055188;28;20044;-53
2024/03/08 07:04:50;;;;;;;22.90;18.13;;;;;;;;;;5055504;28;20407;-54
2024/03/08 07:07:16;;;;;;;23.05;16.65;;;;;;;;;;5055451;28;20391;-56
2024/03/08 07:09:45;;;;;;;21.47;17.40;;;;;;;;;;5056035;28;20028;-56
2024/03/08 07:12:13;;;;;;;20.73;16.05;;;;;;;;;;5055916;28;20029;-55
2024/03/08 07:14:40;;;;;;;24.55;19.33;;;;;;;;;;5056026;28;20091;-56
2024/03/08 07:17:08;;;;;;;20.70;17.02;;;;;;;;;;5055283;28;20042;-53
2024/03/08 07:19:34;;;;;;;23.17;17.38;;;;;;;;;;5055756;28;20029;-52
2024/03/08 07:22:03;;;;;;;21.10;17.93;;;;;;;;;;5055149;28;20425;-55
2024/03/08 07:25:29;;;;;;;24.60;17.95;;;;;;;;;;5055189;28;20426;-54
2024/03/08 07:27:24;;;;;;;25.38;17.17;;;;;;;;;;5050475;28;20430;-53
2024/03/08 07:29:50;;;;;;;23.45;17.20;;;;;;;;;;5054570;28;20032;-54
2024/03/08 07:32:21;;;;;;;21.83;15.98;;;;;;;;;;5054677;28;20029;-55
2024/03/08 07:34:48;;;;;;;22.05;15.98;;;;;;;;;;5054879;28;20116;-56
2024/03/08 07:37:14;;;;;;;23.30;17.40;;;;;;;;;;5054391;28;20037;-54
2024/03/08 07:39:40;;;;;;;21.45;16.65;;;;;;;;;;5053526;28;20025;-56
2024/03/08 07:42:06;;;;;;;22.23;15.80;;;;;;;;;;5054784;28;20028;-56
2024/03/08 07:44:33;;;;;;;22.85;16.27;;;;;;;;;;5054511;28;20017;-57
2024/03/08 07:46:59;;;;;;;19.00;14.45;;;;;;;;;;5054373;28;20060;-52
2024/03/08 07:49:25;;;;;;;25.95;17.30;;;;;;;;;;5055395;28;20354;-55
2024/03/08 07:51:51;;;;;;;19.45;15.00;;;;;;;;;;5054846;28;20335;-52
2024/03/08 07:54:17;;;;;;;26.00;15.45;;;;;;;;;;5054714;28;20036;-53
2024/03/08 07:56:43;;;;;;;19.65;14.98;;;;;;;;;;5054671;28;20049;-53
2024/03/08 07:59:11;;;;;;;21.23;14.43;;;;;;;;;;5054409;28;20033;-55
2024/03/08 08:01:37;;;;;;;19.92;15.40;;;;;;;;;;5054617;28;20039;-53
2024/03/08 08:04:03;;;;;;;21.63;14.40;;;;;;;;;;5054639;28;20033;-55
2024/03/08 08:06:33;;;;;;;19.10;15.27;;;;;;;;;;5054428;28;20028;-51
2024/03/08 08:08:59;;;;;;;20.60;15.07;;;;;;;;;;5055285;28;20079;-57
2024/03/08 08:11:27;;;;;;;20.38;15.70;;;;;;;;;;5054462;28;20451;-56
2024/03/08 08:13:54;;;;;;;18.35;13.40;;;;;;;;;;5054845;28;20344;-55
2024/03/08 08:16:20;;;;;;;21.50;13.50;;;;;;;;;;5053955;28;20033;-55
2024/03/08 08:18:47;;;;;;;20.30;14.77;;;;;;;;;;5054733;28;20104;-55
2024/03/08 08:21:13;;;;;;;20.30;15.73;;;;;;;;;;5054214;28;20029;-53
2024/03/08 08:23:39;;;;;;;18.90;13.50;;;;;;;;;;5054666;28;20029;-55
2024/03/08 08:26:07;;;;;;;20.05;14.35;;;;;;;;;;5054174;28;20056;-55
2024/03/08 08:28:33;;;;;;;17.80;14.38;;;;;;;;;;5054284;28;20103;-54
2024/03/08 08:30:59;;;;;;;17.73;12.90;;;;;;;;;;5053740;28;20029;-56
2024/03/08 08:33:25;;;;;;;19.92;14.45;;;;;;;;;;5054047;28;20032;-55
2024/03/08 08:35:53;;;;;;;20.23;14.40;;;;;;;;;;5054657;28;20082;-52
2024/03/08 08:38:20;;;;;;;19.77;14.43;;;;;;;;;;5054618;28;20037;-54
2024/03/08 08:40:47;;;;;;;17.05;13.50;;;;;;;;;;5054496;28;20029;-54
2024/03/08 08:43:13;;;;;;;17.58;13.82;;;;;;;;;;5053890;28;20028;-56
2024/03/08 08:45:39;;;;;;;18.10;14.18;;;;;;;;;;5053850;28;20079;-56
2024/03/08 08:48:06;;;;;;;19.50;14.38;;;;;;;;;;5054444;28;20091;-52
2024/03/08 08:50:32;;;;;;;21.27;13.40;;;;;;;;;;5053424;28;20032;-56
2024/03/08 08:52:58;;;;;;;15.65;12.82;;;;;;;;;;5054652;28;20075;-54
2024/03/08 08:55:27;;;;;;;20.60;15.25;;;;;;;;;;5054018;28;20029;-54
2024/03/08 08:57:53;;;;;;;19.92;13.32;;;;;;;;;;5053724;28;20059;-57
2024/03/08 09:00:20;;;;;;;19.35;14.02;;;;;;;;;;5053990;28;20423;-56
2024/03/08 09:02:47;;;;;;;15.82;12.52;;;;;;;;;;5053558;28;20035;-56
2024/03/08 09:05:16;;;;;;;18.80;13.05;;;;;;;;;;5053585;28;20053;-57
2024/03/08 09:07:44;;;;;;;19.30;13.65;;;;;;;;;;5054324;28;20037;-57
2024/03/08 09:10:12;;;;;;;20.10;14.68;;;;;;;;;;5053941;28;20037;-56
2024/03/08 09:12:39;;;;;;;19.75;12.73;;;;;;;;;;5053589;28;20056;-56
2024/03/08 09:15:05;;;;;;;19.90;13.95;;;;;;;;;;5054086;28;20122;-53
2024/03/08 09:17:33;;;;;;;17.33;13.02;;;;;;;;;;5053199;28;20036;-56
2024/03/08 09:19:59;;;;;;;17.13;12.48;;;;;;;;;;5054256;28;20029;-57
2024/03/08 09:22:25;;;;;;;18.10;12.93;;;;;;;;;;5053509;28;20115;-57
2024/03/08 09:24:51;;;;;;;16.80;12.48;;;;;;;;;;5053140;28;20175;-54
2024/03/08 09:27:18;;;;;;;17.70;13.50;;;;;;;;;;5053538;28;20497;-56
2024/03/08 09:29:44;;;;;;;20.17;13.70;;;;;;;;;;5054018;28;20025;-53
2024/03/08 09:32:11;;;;;;;17.55;14.48;;;;;;;;;;5053507;28;20418;-57
2024/03/08 09:34:37;;;;;;;17.88;13.23;;;;;;;;;;5054121;28;20354;-57
2024/03/08 09:37:04;;;;;;;17.92;14.77;;;;;;;;;;5053408;28;20029;-56
2024/03/08 09:39:30;;;;;;;18.58;13.90;;;;;;;;;;5053381;28;20032;-57
2024/03/08 09:41:56;;;;;;;15.40;12.73;;;;;;;;;;5053860;28;20025;-55
2024/03/08 09:44:23;;;;;;;16.98;12.52;;;;;;;;;;5053409;28;20036;-55
2024/03/08 09:46:51;;;;;;;17.63;13.10;;;;;;;;;;5053260;28;20044;-56
2024/03/08 09:49:17;;;;;;;18.00;12.88;;;;;;;;;;5053924;28;20067;-57
2024/03/08 09:51:43;;;;;;;19.98;13.20;;;;;;;;;;5053305;28;20431;-57
2024/03/08 09:54:09;;;;;;;18.50;13.45;;;;;;;;;;5053806;28;20071;-54
2024/03/08 09:56:36;;;;;;;20.77;13.70;;;;;;;;;;5052897;28;20113;-55
2024/03/08 10:01:39;;;;;;;15.40;12.48;;;;;;;;;;5053270;28;20040;-57
2024/03/08 10:04:05;;;;;;;15.05;11.30;;;;;;;;;;5056729;28;20086;-54
2024/03/08 10:06:31;;;;;;;16.00;12.15;;;;;;;;;;5057022;28;20025;-54
2024/03/08 10:08:57;;;;;;;14.95;13.30;;;;;;;;;;5057053;28;20036;-56
2024/03/08 10:11:24;;;;;;;16.08;11.48;;;;;;;;;;5056676;28;20029;-54
2024/03/08 10:13:51;;;;;;;17.27;12.02;;;;;;;;;;5056545;28;20025;-55
2024/03/08 10:16:18;;;;;;;14.82;11.25;;;;;;;;;;5056599;28;20082;-56
2024/03/08 10:18:45;;;;;;;17.27;11.85;;;;;;;;;;5056635;28;20029;-57
2024/03/08 10:21:15;;;;;;;15.05;12.30;;;;;;;;;;5056964;28;20025;-56
2024/03/08 10:23:43;;;;;;;18.90;12.77;;;;;;;;;;5056803;28;20036;-57
2024/03/08 10:26:16;;;;;;;15.82;11.52;;;;;;;;;;5057273;28;20036;-57
2024/03/08 10:28:45;;;;;;;15.15;11.75;;;;;;;;;;5056912;28;20033;-57
2024/03/08 10:31:11;;;;;;;14.70;11.05;;;;;;;;;;5056321;28;20029;-56
2024/03/08 10:33:41;;;;;;;17.83;11.93;;;;;;;;;;5056029;28;20386;-54
2024/03/08 10:36:08;;;;;;;16.23;11.48;;;;;;;;;;5056213;28;20037;-56
2024/03/08 10:38:36;;;;;;;15.23;10.65;;;;;;;;;;5056519;28;20033;-54
2024/03/08 10:41:03;;;;;;;14.98;11.23;;;;;;;;;;5056612;28;20032;-57
2024/03/08 10:43:36;;;;;;;14.95;10.82;;;;;;;;;;5056150;28;20058;-57
2024/03/08 10:46:14;;;;;;;14.85;11.88;;;;;;;;;;5056298;28;20463;-57
2024/03/08 10:48:44;;;;;;;13.82;11.00;;;;;;;;;;5056562;28;20045;-57
2024/03/08 10:51:11;;;;;;;14.57;11.20;;;;;;;;;;5056039;28;20029;-55
2024/03/08 10:53:41;;;;;;;16.38;10.43;;;;;;;;;;5055954;28;20048;-56
2024/03/08 10:56:07;;;;;;;14.30;10.80;;;;;;;;;;5056410;28;20383;-55
2024/03/08 10:58:34;;;;;;;13.98;11.32;;;;;;;;;;5055836;28;20063;-54
2024/03/08 11:01:00;;;;;;;12.85;10.13;;;;;;;;;;5055471;28;20075;-55
2024/03/08 11:03:44;;;;;;;16.90;11.23;;;;;;;;;;5055778;28;20033;-55
2024/03/08 11:06:22;;;;;;;14.30;11.77;;;;;;;;;;5055745;28;20029;-54
2024/03/08 11:08:55;;;;;;;17.15;10.45;;;;;;;;;;5055925;28;20043;-55
2024/03/08 11:11:34;;;;;;;16.80;13.02;;;;;;;;;;5055585;28;20053;-56
2024/03/08 11:14:01;;;;;;;15.15;10.32;;;;;;;;;;5055805;28;20033;-53
2024/03/08 11:16:27;;;;;;;14.23;11.65;;;;;;;;;;5055531;28;20028;-54
2024/03/08 11:19:04;;;;;;;20.48;10.98;;;;;;;;;;5055720;28;20505;-55
2024/03/08 11:21:33;;;;;;;15.68;11.95;;;;;;;;;;5055700;28;20035;-56
2024/03/08 11:24:03;;;;;;;14.02;10.02;;;;;;;;;;5055358;28;20059;-55
2024/03/08 11:26:35;;;;;;;14.75;10.88;;;;;;;;;;5055665;28;20198;-56
2024/03/08 11:29:20;;;;;;;13.38;11.52;;;;;;;;;;5055970;28;20025;-52
2024/03/08 11:31:46;;;;;;;15.18;11.48;;;;;;;;;;5055270;28;20519;-56
2024/03/08 11:34:16;;;;;;;15.50;11.38;;;;;;;;;;5055931;28;20064;-57
2024/03/08 11:36:42;;;;;;;14.80;10.85;;;;;;;;;;5055177;28;20053;-57
2024/03/08 11:39:14;;;;;;;13.98;10.52;;;;;;;;;;5055510;28;20377;-56
2024/03/08 11:41:41;;;;;;;16.73;11.82;;;;;;;;;;5055121;28;20022;-56
2024/03/08 11:44:09;;;;;;;14.48;11.88;;;;;;;;;;5054897;28;20348;-56
2024/03/08 11:46:35;;;;;;;17.40;12.63;;;;;;;;;;5054820;28;20455;-56
2024/03/08 11:49:03;;;;;;;14.82;11.18;;;;;;;;;;5054880;28;20474;-57
2024/03/08 11:51:30;;;;;;;15.88;11.30;;;;;;;;;;5055308;28;20191;-55
2024/03/08 11:53:56;;;;;;;12.90;10.48;;;;;;;;;;5055067;28;20025;-56
2024/03/08 11:56:22;;;;;;;21.73;11.90;;;;;;;;;;5055148;28;20426;-57
2024/03/08 11:58:58;;;;;;;13.63;11.60;;;;;;;;;;5055022;28;20087;-55
2024/03/08 12:01:24;;;;;;;13.68;10.35;;;;;;;;;;5054643;28;20080;-55
2024/03/08 12:03:54;;;;;;;15.18;12.07;;;;;;;;;;5054311;28;20033;-57
2024/03/08 12:06:20;;;;;;;17.75;13.43;;;;;;;;;;5054535;28;20116;-57
2024/03/08 12:08:50;;;;;;;16.17;12.48;;;;;;;;;;5054423;28;20029;-55
2024/03/08 12:11:22;;;;;;;15.23;11.52;;;;;;;;;;5054417;28;20021;-57
2024/03/08 12:13:50;;;;;;;17.63;12.45;;;;;;;;;;5055031;28;20040;-57
2024/03/08 12:16:17;;;;;;;15.85;11.77;;;;;;;;;;5054218;28;20017;-53
2024/03/08 12:18:44;;;;;;;18.67;12.80;;;;;;;;;;5055017;28;20111;-56
2024/03/08 12:21:13;;;;;;;16.50;12.35;;;;;;;;;;5054341;28;20028;-57
2024/03/08 12:23:39;;;;;;;17.63;12.40;;;;;;;;;;5054246;28;20268;-57
2024/03/08 12:26:15;;;;;;;16.67;11.43;;;;;;;;;;5053523;28;20029;-56
2024/03/08 12:28:44;;;;;;;16.13;11.43;;;;;;;;;;5054063;28;20467;-56
2024/03/08 12:31:12;;;;;;;15.52;11.57;;;;;;;;;;5054045;28;20025;-57
2024/03/08 12:33:52;;;;;;;17.55;12.00;;;;;;;;;;5054382;28;20024;-56
2024/03/08 12:36:18;;;;;;;16.13;12.35;;;;;;;;;;5054002;28;20028;-56
2024/03/08 12:38:47;;;;;;;18.05;11.90;;;;;;;;;;5054014;28;20029;-57
2024/03/08 12:41:14;;;;;;;15.60;12.20;;;;;;;;;;5053876;28;20028;-57
2024/03/08 12:43:40;;;;;;;17.45;12.95;;;;;;;;;;5053880;28;20114;-55
2024/03/08 12:46:08;;;;;;;18.23;12.60;;;;;;;;;;5054373;28;20021;-53
2024/03/08 12:48:40;;;;;;;17.13;13.73;;;;;;;;;;5054357;28;20036;-56
2024/03/08 12:51:07;;;;;;;18.23;13.05;;;;;;;;;;5054133;28;20037;-56
2024/03/08 12:53:33;;;;;;;15.55;12.77;;;;;;;;;;5053833;28;20119;-57
2024/03/08 12:55:59;;;;;;;19.48;13.80;;;;;;;;;;5053649;28;20048;-57
2024/03/08 12:58:25;;;;;;;23.08;13.68;;;;;;;;;;5053888;28;20029;-56
2024/03/08 13:00:52;;;;;;;16.50;13.32;;;;;;;;;;5053459;28;20486;-56
2024/03/08 13:03:18;;;;;;;15.95;12.30;;;;;;;;;;5053354;28;20036;-56
2024/03/08 13:05:44;;;;;;;15.32;12.30;;;;;;;;;;5053699;28;20025;-56
2024/03/08 13:08:12;;;;;;;19.83;14.00;;;;;;;;;;5053887;28;20037;-53
2024/03/08 13:10:39;;;;;;;15.60;12.15;;;;;;;;;;5054210;28;20049;-53
2024/03/08 13:13:05;;;;;;;14.73;11.65;;;;;;;;;;5053584;28;20063;-55
2024/03/08 13:15:33;;;;;;;18.08;12.55;;;;;;;;;;5053521;28;20143;-56
2024/03/08 13:18:00;;;;;;;19.73;12.95;;;;;;;;;;5053364;28;20041;-56
2024/03/08 13:20:28;;;;;;;18.63;12.73;;;;;;;;;;5053523;28;20494;-56
2024/03/08 13:22:55;;;;;;;15.43;12.02;;;;;;;;;;5053434;28;20513;-55
2024/03/08 13:25:21;;;;;;;18.15;13.00;;;;;;;;;;5053482;28;20100;-54
2024/03/08 13:27:47;;;;;;;15.13;12.60;;;;;;;;;;5053462;28;20093;-56
2024/03/08 13:30:13;;;;;;;17.10;12.18;;;;;;;;;;5053768;28;20025;-57
2024/03/08 13:32:42;;;;;;;19.88;13.85;;;;;;;;;;5054268;28;20040;-57
2024/03/08 13:35:12;;;;;;;19.60;13.07;;;;;;;;;;5053681;28;20371;-56
2024/03/08 13:37:39;;;;;;;15.95;13.30;;;;;;;;;;5056397;28;20029;-55
2024/03/08 13:40:05;;;;;;;17.00;12.20;;;;;;;;;;5057764;28;20021;-57
2024/03/08 13:42:31;;;;;;;15.27;11.32;;;;;;;;;;5057246;28;20029;-55
2024/03/08 13:44:57;;;;;;;15.95;11.15;;;;;;;;;;5057262;28;20071;-56
2024/03/08 13:47:24;;;;;;;15.73;11.50;;;;;;;;;;5057154;28;20067;-57
2024/03/08 13:49:50;;;;;;;16.52;11.80;;;;;;;;;;5057338;28;20025;-56
2024/03/08 13:52:16;;;;;;;16.05;12.27;;;;;;;;;;5057621;28;20367;-54
2024/03/08 13:54:43;;;;;;;19.23;12.80;;;;;;;;;;5056998;28;20025;-55
2024/03/08 13:57:09;;;;;;;16.38;11.70;;;;;;;;;;5056930;28;20274;-57
2024/03/08 13:59:38;;;;;;;15.75;12.45;;;;;;;;;;5057419;28;20049;-56
2024/03/08 14:02:04;;;;;;;17.58;13.00;;;;;;;;;;5056949;28;20025;-54
2024/03/08 14:04:30;;;;;;;17.90;13.95;;;;;;;;;;5056847;28;20033;-56
2024/03/08 14:06:59;;;;;;;20.98;13.23;;;;;;;;;;5057080;28;20059;-55
2024/03/08 14:09:26;;;;;;;18.92;12.75;;;;;;;;;;5057325;28;20032;-56
2024/03/08 14:11:55;;;;;;;16.35;12.60;;;;;;;;;;5056650;28;20021;-55
2024/03/08 14:14:25;;;;;;;18.70;13.02;;;;;;;;;;5056701;28;20029;-55
2024/03/08 14:16:55;;;;;;;13.90;11.30;;;;;;;;;;5056246;28;20029;-56
2024/03/08 14:19:21;;;;;;;17.13;12.82;;;;;;;;;;5056626;28;20029;-57
2024/03/08 14:21:53;;;;;;;18.92;12.52;;;;;;;;;;5057122;28;20029;-57